Time,TemperatureF,DewpointF,PressureIn,WindDirection,WindDirectionDegrees,WindSpeedMPH,WindSpeedGustMPH,Humidity,HourlyPrecipIn,Conditions,Clouds,dailyrainin,SoftwareType,DateUTC
2013-03-09 00:01:00,46.0,35.0,30.24,East,91,0.0,0.0,64,0.00,,,0.00,,2013-03-09 06:01:00,
2013-03-09 00:11:00,45.0,34.0,30.23,East,96,0.0,0.0,65,0.00,,,0.00,,2013-03-09 06:11:00,
2013-03-09 00:22:00,45.0,34.0,30.23,East,96,0.0,0.0,65,0.00,,,0.00,,2013-03-09 06:22:00,
2013-03-09 00:32:00,45.0,34.0,30.23,East,92,0.0,0.0,64,0.00,,,0.00,,2013-03-09 06:32:00,
2013-03-09 00:42:00,45.0,34.0,30.23,East,92,0.0,0.0,64,0.00,,,0.00,,2013-03-09 06:42:00,
2013-03-09 00:52:00,45.0,34.0,30.22,ESE,109,0.0,0.0,64,0.00,,,0.00,,2013-03-09 06:52:00,
2013-03-09 01:01:00,45.0,33.0,30.22,East,89,0.0,0.0,63,0.00,,,0.00,,2013-03-09 07:01:00,
2013-03-09 01:11:00,45.0,33.0,30.22,East,89,0.0,0.0,63,0.00,,,0.00,,2013-03-09 07:11:00,
2013-03-09 01:21:00,45.0,33.0,30.22,East,98,0.0,0.0,62,0.00,,,0.00,,2013-03-09 07:21:00,
2013-03-09 01:31:00,45.0,33.0,30.20,East,93,0.0,0.0,62,0.00,,,0.00,,2013-03-09 07:31:00,
2013-03-09 01:41:00,45.0,33.0,30.20,East,93,0.0,0.0,62,0.00,,,0.00,,2013-03-09 07:41:00,
2013-03-09 01:52:00,45.0,32.0,30.21,ESE,104,0.0,0.0,61,0.00,,,0.00,,2013-03-09 07:52:00,
2013-03-09 02:01:00,45.0,32.0,30.20,East,94,0.0,0.0,61,0.00,,,0.00,,2013-03-09 08:01:00,
2013-03-09 02:11:00,45.0,32.0,30.20,East,94,0.0,0.0,61,0.00,,,0.00,,2013-03-09 08:11:00,
2013-03-09 02:22:00,45.0,32.0,30.19,ESE,103,0.0,0.0,61,0.00,,,0.00,,2013-03-09 08:22:00,
2013-03-09 02:31:00,45.0,32.0,30.18,East,90,0.0,0.0,60,0.00,,,0.00,,2013-03-09 08:31:00,
2013-03-09 02:41:00,45.0,32.0,30.18,East,90,0.0,0.0,60,0.00,,,0.00,,2013-03-09 08:41:00,
2013-03-09 02:52:00,45.0,32.0,30.17,East,98,0.0,0.0,60,0.00,,,0.00,,2013-03-09 08:52:00,
2013-03-09 03:01:00,45.0,32.0,30.16,East,91,0.0,0.0,60,0.00,,,0.00,,2013-03-09 09:01:00,
2013-03-09 03:12:00,45.0,32.0,30.16,East,91,0.0,0.0,60,0.00,,,0.00,,2013-03-09 09:12:00,
2013-03-09 03:21:00,45.0,32.0,30.15,East,89,0.0,0.0,60,0.00,,,0.00,,2013-03-09 09:21:00,
2013-03-09 03:31:00,45.0,32.0,30.15,ESE,106,0.0,0.0,59,0.00,,,0.00,,2013-03-09 09:31:00,
2013-03-09 03:42:00,45.0,32.0,30.15,ESE,106,0.0,0.0,59,0.00,,,0.00,,2013-03-09 09:42:00,
2013-03-09 03:52:00,45.0,32.0,30.15,ESE,102,0.0,0.0,59,0.00,,,0.00,,2013-03-09 09:52:00,
2013-03-09 04:01:00,45.0,32.0,30.16,ESE,106,0.0,0.0,60,0.00,,,0.00,,2013-03-09 10:01:00,
2013-03-09 04:11:00,45.0,32.0,30.16,ESE,106,0.0,0.0,60,0.00,,,0.00,,2013-03-09 10:11:00,
2013-03-09 04:21:00,45.0,32.0,30.16,East,98,0.0,0.0,60,0.00,,,0.00,,2013-03-09 10:21:00,
2013-03-09 04:31:00,45.0,32.0,30.17,East,96,0.0,0.0,60,0.00,,,0.00,,2013-03-09 10:31:00,
2013-03-09 04:41:00,45.0,32.0,30.17,East,96,0.0,0.0,60,0.00,,,0.00,,2013-03-09 10:41:00,
2013-03-09 04:52:00,45.0,32.0,30.16,East,87,0.0,0.0,60,0.00,,,0.00,,2013-03-09 10:52:00,
2013-03-09 05:01:00,45.0,32.0,30.16,East,98,0.0,0.0,60,0.00,,,0.00,,2013-03-09 11:01:00,
2013-03-09 05:11:00,45.0,32.0,30.16,East,98,0.0,0.0,60,0.00,,,0.00,,2013-03-09 11:11:00,
2013-03-09 05:21:00,45.0,32.0,30.17,ESE,110,0.0,0.0,60,0.00,,,0.00,,2013-03-09 11:21:00,
2013-03-09 05:32:00,45.0,33.0,30.16,ESE,106,0.0,0.0,63,0.00,,,0.00,,2013-03-09 11:32:00,
2013-03-09 05:42:00,45.0,33.0,30.16,ESE,106,0.0,0.0,63,0.00,,,0.00,,2013-03-09 11:42:00,
2013-03-09 05:52:00,44.0,33.0,30.16,ESE,102,0.0,0.0,64,0.00,,,0.00,,2013-03-09 11:52:00,
2013-03-09 06:01:00,44.0,33.0,30.17,ESE,103,0.0,0.0,65,0.00,,,0.00,,2013-03-09 12:01:00,
2013-03-09 06:11:00,44.0,33.0,30.17,ESE,103,0.0,0.0,65,0.00,,,0.00,,2013-03-09 12:11:00,
2013-03-09 06:21:00,43.0,34.0,30.15,East,88,0.0,0.0,71,0.01,,,0.01,,2013-03-09 12:21:00,
2013-03-09 06:32:00,42.0,35.0,30.16,ESE,103,0.0,0.0,75,0.02,,,0.02,,2013-03-09 12:32:00,
2013-03-09 06:42:00,42.0,35.0,30.16,ESE,103,0.0,0.0,75,0.02,,,0.02,,2013-03-09 12:42:00,
2013-03-09 06:52:00,42.0,36.0,30.15,East,96,0.0,0.0,78,0.03,,,0.03,,2013-03-09 12:52:00,
2013-03-09 07:02:00,41.0,35.0,30.16,East,88,0.0,0.0,80,0.04,,,0.04,,2013-03-09 13:02:00,
2013-03-09 07:11:00,41.0,35.0,30.16,East,88,0.0,0.0,80,0.04,,,0.04,,2013-03-09 13:11:00,
2013-03-09 07:21:00,41.0,36.0,30.15,East,94,0.0,0.0,81,0.05,,,0.06,,2013-03-09 13:21:00,
2013-03-09 07:32:00,41.0,36.0,30.16,East,87,0.0,0.0,82,0.06,,,0.08,,2013-03-09 13:32:00,
2013-03-09 07:42:00,41.0,36.0,30.16,East,87,0.0,0.0,82,0.06,,,0.08,,2013-03-09 13:42:00,
2013-03-09 07:52:00,41.0,36.0,30.16,East,94,0.0,0.0,82,0.06,,,0.09,,2013-03-09 13:52:00,
2013-03-09 08:01:00,41.0,36.0,30.18,ESE,102,0.0,0.0,83,0.07,,,0.11,,2013-03-09 14:01:00,
2013-03-09 08:11:00,41.0,36.0,30.18,ESE,102,0.0,0.0,83,0.07,,,0.11,,2013-03-09 14:11:00,
2013-03-09 08:21:00,41.0,36.0,30.16,East,96,0.0,0.0,83,0.06,,,0.12,,2013-03-09 14:21:00,
2013-03-09 08:32:00,41.0,37.0,30.16,East,96,0.0,0.0,84,0.07,,,0.14,,2013-03-09 14:32:00,
2013-03-09 08:42:00,41.0,37.0,30.16,East,96,0.0,0.0,84,0.07,,,0.14,,2013-03-09 14:42:00,
2013-03-09 08:52:00,41.0,37.0,30.15,East,96,0.0,0.0,84,0.07,,,0.16,,2013-03-09 14:52:00,
2013-03-09 09:01:00,41.0,37.0,30.14,ESE,104,0.0,0.0,84,0.07,,,0.18,,2013-03-09 15:01:00,
2013-03-09 09:11:00,41.0,37.0,30.14,ESE,104,0.0,0.0,84,0.07,,,0.18,,2013-03-09 15:11:00,
2013-03-09 09:22:00,41.0,37.0,30.15,East,95,0.0,0.0,85,0.07,,,0.19,,2013-03-09 15:22:00,
2013-03-09 09:31:00,41.0,37.0,30.14,East,92,0.0,0.0,86,0.07,,,0.21,,2013-03-09 15:31:00,
2013-03-09 09:42:00,41.0,37.0,30.14,East,92,0.0,0.0,86,0.07,,,0.21,,2013-03-09 15:42:00,
2013-03-09 09:52:00,41.0,37.0,30.13,ESE,103,0.0,0.0,86,0.07,,,0.23,,2013-03-09 15:52:00,
2013-03-09 10:01:00,41.0,37.0,30.14,East,98,0.0,0.0,86,0.08,,,0.25,,2013-03-09 16:01:00,
2013-03-09 10:11:00,41.0,37.0,30.14,East,98,0.0,0.0,86,0.08,,,0.25,,2013-03-09 16:11:00,
2013-03-09 10:21:00,41.0,37.0,30.12,East,94,0.0,0.0,86,0.09,,,0.28,,2013-03-09 16:21:00,
2013-03-09 10:32:00,41.0,37.0,30.12,East,96,0.0,0.0,87,0.10,,,0.31,,2013-03-09 16:32:00,
2013-03-09 10:41:00,41.0,37.0,30.12,East,96,0.0,0.0,87,0.10,,,0.31,,2013-03-09 16:41:00,
2013-03-09 10:52:00,41.0,38.0,30.10,East,90,0.0,0.0,88,0.11,,,0.34,,2013-03-09 16:52:00,
2013-03-09 11:01:00,41.0,38.0,30.08,East,95,0.0,0.0,88,0.11,,,0.36,,2013-03-09 17:01:00,
2013-03-09 11:11:00,41.0,38.0,30.08,East,95,0.0,0.0,88,0.11,,,0.36,,2013-03-09 17:11:00,
2013-03-09 11:22:00,42.0,39.0,30.07,East,92,0.0,0.0,88,0.11,,,0.39,,2013-03-09 17:22:00,
2013-03-09 11:32:00,44.0,41.0,30.06,East,95,0.0,0.0,88,0.10,,,0.41,,2013-03-09 17:32:00,
2013-03-09 11:42:00,44.0,41.0,30.06,East,95,0.0,0.0,88,0.10,,,0.41,,2013-03-09 17:42:00,
2013-03-09 11:52:00,46.0,42.0,30.06,East,95,0.0,0.0,87,0.10,,,0.43,,2013-03-09 17:52:00,
2013-03-09 12:01:00,48.0,43.0,30.05,ESE,103,0.0,0.0,83,0.09,,,0.45,,2013-03-09 18:01:00,
2013-03-09 12:11:00,48.0,43.0,30.05,ESE,103,0.0,0.0,83,0.09,,,0.45,,2013-03-09 18:11:00,
2013-03-09 12:21:00,50.0,43.0,30.03,East,84,0.0,0.0,76,0.08,,,0.47,,2013-03-09 18:21:00,
2013-03-09 12:31:00,51.0,43.0,30.02,East,99,0.0,0.0,73,0.07,,,0.48,,2013-03-09 18:31:00,
2013-03-09 12:42:00,51.0,43.0,30.02,East,99,0.0,0.0,73,0.07,,,0.48,,2013-03-09 18:42:00,
2013-03-09 12:52:00,53.0,42.0,30.01,East,98,0.0,0.0,67,0.05,,,0.48,,2013-03-09 18:52:00,
2013-03-09 13:01:00,54.0,41.0,29.99,East,101,0.0,0.0,62,0.03,,,0.48,,2013-03-09 19:01:00,
2013-03-09 13:11:00,54.0,41.0,29.99,East,101,0.0,0.0,62,0.03,,,0.48,,2013-03-09 19:11:00,
2013-03-09 13:22:00,55.0,41.0,29.98,ESE,122,0.0,0.0,60,0.02,,,0.48,,2013-03-09 19:22:00,
2013-03-09 13:32:00,56.0,42.0,29.96,ESE,116,0.0,0.0,59,0.00,,,0.48,,2013-03-09 19:32:00,
2013-03-09 13:42:00,56.0,42.0,29.96,ESE,116,0.0,0.0,59,0.00,,,0.48,,2013-03-09 19:42:00,
2013-03-09 13:52:00,57.0,43.0,29.95,East,95,0.0,0.0,60,0.00,,,0.48,,2013-03-09 19:52:00,
2013-03-09 14:01:00,57.0,42.0,29.94,ESE,113,0.0,0.0,58,0.00,,,0.48,,2013-03-09 20:01:00,
2013-03-09 14:11:00,57.0,42.0,29.94,ESE,113,0.0,0.0,58,0.00,,,0.48,,2013-03-09 20:11:00,
2013-03-09 14:21:00,58.0,43.0,29.94,ESE,102,0.0,0.0,57,0.00,,,0.48,,2013-03-09 20:21:00,
2013-03-09 14:32:00,59.0,42.0,29.93,East,94,0.0,0.0,54,0.00,,,0.48,,2013-03-09 20:32:00,
2013-03-09 14:42:00,59.0,42.0,29.93,East,94,0.0,0.0,54,0.00,,,0.48,,2013-03-09 20:42:00,
2013-03-09 14:52:00,61.0,44.0,29.91,East,84,0.0,0.0,54,0.00,,,0.48,,2013-03-09 20:52:00,
2013-03-09 15:02:00,61.0,43.0,29.89,ENE,74,0.0,0.0,52,0.00,,,0.48,,2013-03-09 21:02:00,
2013-03-09 15:12:00,61.0,43.0,29.89,ENE,74,0.0,0.0,52,0.00,,,0.48,,2013-03-09 21:12:00,
2013-03-09 15:21:00,62.0,44.0,29.88,East,80,0.0,0.0,51,0.00,,,0.48,,2013-03-09 21:21:00,
2013-03-09 15:32:00,62.0,43.0,29.88,East,96,0.0,0.0,50,0.00,,,0.48,,2013-03-09 21:32:00,
2013-03-09 15:42:00,62.0,43.0,29.88,East,96,0.0,0.0,50,0.00,,,0.48,,2013-03-09 21:42:00,
2013-03-09 15:52:00,64.0,44.0,29.87,ESE,104,0.0,0.0,49,0.00,,,0.48,,2013-03-09 21:52:00,
2013-03-09 16:01:00,65.0,44.0,29.86,East,97,0.0,0.0,47,0.00,,,0.48,,2013-03-09 22:01:00,
2013-03-09 16:11:00,65.0,44.0,29.86,East,97,0.0,0.0,47,0.00,,,0.48,,2013-03-09 22:11:00,
2013-03-09 16:21:00,66.0,44.0,29.85,ESE,103,0.0,0.0,45,0.00,,,0.48,,2013-03-09 22:21:00,
2013-03-09 16:32:00,68.0,41.0,29.85,ESE,107,0.0,0.0,38,0.00,,,0.48,,2013-03-09 22:32:00,
2013-03-09 16:41:00,68.0,41.0,29.85,ESE,107,0.0,0.0,38,0.00,,,0.48,,2013-03-09 22:41:00,
2013-03-09 16:52:00,67.0,44.0,29.85,East,98,0.0,0.0,44,0.00,,,0.48,,2013-03-09 22:52:00,
2013-03-09 17:01:00,67.0,41.0,29.85,ESE,115,0.0,0.0,39,0.00,,,0.48,,2013-03-09 23:01:00,
2013-03-09 17:11:00,67.0,41.0,29.85,ESE,115,0.0,0.0,39,0.00,,,0.48,,2013-03-09 23:11:00,
2013-03-09 17:21:00,67.0,41.0,29.85,ESE,107,0.0,0.0,39,0.00,,,0.48,,2013-03-09 23:21:00,
2013-03-09 17:32:00,66.0,41.0,29.85,ESE,102,0.0,0.0,40,0.00,,,0.48,,2013-03-09 23:32:00,
2013-03-09 17:41:00,66.0,41.0,29.85,ESE,102,0.0,0.0,40,0.00,,,0.48,,2013-03-09 23:41:00,
2013-03-09 17:52:00,66.0,42.0,29.85,ESE,115,0.0,0.0,41,0.00,,,0.48,,2013-03-09 23:52:00,
2013-03-09 18:01:00,65.0,42.0,29.85,ESE,116,0.0,0.0,43,0.00,,,0.48,,2013-03-10 00:01:00,
2013-03-09 18:11:00,65.0,42.0,29.85,ESE,116,0.0,0.0,43,0.00,,,0.48,,2013-03-10 00:11:00,
2013-03-09 18:22:00,64.0,42.0,29.85,ESE,105,0.0,0.0,44,0.00,,,0.48,,2013-03-10 00:22:00,
2013-03-09 18:32:00,63.0,41.0,29.87,ESE,107,0.0,0.0,45,0.00,,,0.48,,2013-03-10 00:32:00,
2013-03-09 18:42:00,63.0,41.0,29.87,ESE,107,0.0,0.0,45,0.00,,,0.48,,2013-03-10 00:42:00,
2013-03-09 18:52:00,62.0,42.0,29.87,ESE,105,0.0,0.0,48,0.00,,,0.48,,2013-03-10 00:52:00,
2013-03-09 19:01:00,62.0,43.0,29.86,ESE,109,0.0,0.0,49,0.00,,,0.48,,2013-03-10 01:01:00,
2013-03-09 19:11:00,62.0,43.0,29.86,ESE,109,0.0,0.0,49,0.00,,,0.48,,2013-03-10 01:11:00,
2013-03-09 19:21:00,62.0,42.0,29.86,East,101,0.0,0.0,48,0.00,,,0.48,,2013-03-10 01:21:00,
2013-03-09 19:31:00,61.0,41.0,29.85,ESE,114,0.0,0.0,48,0.00,,,0.48,,2013-03-10 01:31:00,
2013-03-09 19:41:00,61.0,41.0,29.85,ESE,114,0.0,0.0,48,0.00,,,0.48,,2013-03-10 01:41:00,
2013-03-09 19:52:00,61.0,41.0,29.86,ESE,117,0.0,0.0,47,0.00,,,0.48,,2013-03-10 01:52:00,
2013-03-09 20:01:00,61.0,41.0,29.85,ESE,102,0.0,0.0,47,0.00,,,0.48,,2013-03-10 02:01:00,
2013-03-09 20:11:00,61.0,41.0,29.85,ESE,102,0.0,0.0,47,0.00,,,0.48,,2013-03-10 02:11:00,
2013-03-09 20:22:00,60.0,41.0,29.85,ESE,112,0.0,0.0,49,0.00,,,0.48,,2013-03-10 02:22:00,
2013-03-09 20:32:00,60.0,41.0,29.85,ESE,113,0.0,0.0,49,0.00,,,0.48,,2013-03-10 02:32:00,
2013-03-09 20:42:00,60.0,41.0,29.85,ESE,113,0.0,0.0,49,0.00,,,0.48,,2013-03-10 02:42:00,
2013-03-09 20:52:00,60.0,41.0,29.85,ESE,113,0.0,0.0,49,0.00,,,0.48,,2013-03-10 02:52:00,
2013-03-09 21:01:00,59.0,40.0,29.84,ESE,105,0.0,0.0,49,0.00,,,0.48,,2013-03-10 03:01:00,
2013-03-09 21:11:00,59.0,40.0,29.84,ESE,105,0.0,0.0,49,0.00,,,0.48,,2013-03-10 03:11:00,
2013-03-09 21:22:00,59.0,39.0,29.85,ESE,117,0.0,0.0,48,0.00,,,0.48,,2013-03-10 03:22:00,
2013-03-09 21:32:00,59.0,40.0,29.85,ESE,114,0.0,0.0,49,0.00,,,0.48,,2013-03-10 03:32:00,
2013-03-09 21:42:00,59.0,40.0,29.85,ESE,114,0.0,0.0,49,0.00,,,0.48,,2013-03-10 03:42:00,
2013-03-09 21:52:00,59.0,40.0,29.85,ESE,102,0.0,0.0,49,0.00,,,0.48,,2013-03-10 03:52:00,
2013-03-09 22:01:00,59.0,40.0,29.86,SE,130,0.0,0.0,49,0.00,,,0.48,,2013-03-10 04:01:00,
2013-03-09 22:11:00,59.0,40.0,29.86,SE,130,0.0,0.0,49,0.00,,,0.48,,2013-03-10 04:11:00,
2013-03-09 22:21:00,59.0,39.0,29.85,ESE,113,0.0,0.0,48,0.00,,,0.48,,2013-03-10 04:21:00,
2013-03-09 22:31:00,59.0,39.0,29.85,SE,126,0.0,0.0,47,0.00,,,0.48,,2013-03-10 04:31:00,
2013-03-09 22:42:00,59.0,39.0,29.85,SE,126,0.0,0.0,47,0.00,,,0.48,,2013-03-10 04:42:00,
2013-03-09 22:52:00,60.0,39.0,29.85,ESE,121,0.0,0.0,45,0.00,,,0.48,,2013-03-10 04:52:00,
2013-03-09 23:01:00,61.0,40.0,29.85,SE,128,0.0,0.0,45,0.00,,,0.48,,2013-03-10 05:01:00,
2013-03-09 23:11:00,61.0,40.0,29.85,SE,128,0.0,0.0,45,0.00,,,0.48,,2013-03-10 05:11:00,
2013-03-09 23:22:00,61.0,40.0,29.85,ESE,117,0.0,0.0,45,0.00,,,0.48,,2013-03-10 05:22:00,
2013-03-09 23:31:00,61.0,40.0,29.84,ESE,113,0.0,0.0,46,0.00,,,0.48,,2013-03-10 05:31:00,
2013-03-09 23:42:00,60.0,40.0,29.84,ESE,105,0.0,0.0,48,0.00,,,0.48,,2013-03-10 05:42:00,
2013-03-09 23:52:00,60.0,40.0,29.84,ESE,105,0.0,0.0,48,0.00,,,0.48,,2013-03-10 05:52:00,